Terminal Aerodrome Forecast
Issued by NWS Huntsville, AL

Home | Current Version | Previous Version | Text Only | Print | Product List | Glossary On
Versions: 1 2 3 4 5 6 7 8 9 10 11 12
000
FTUS44 KHUN 031730
TAFMSL
TAF
KMSL 031730Z 0318/0418 06005KT P6SM BKN090
     FM032000 07007KT P6SM VCSH OVC040
     FM040100 07008KT 5SM -RA BR OVC030
     FM040400 10008KT 3SM -RA BR BKN009 OVC020
     FM041200 10006KT 4SM -RA BR OVC007
     FM041400 12006KT 2SM -RA BR OVC006=

USA.gov is the U.S. government's official web portal to all federal, state and local government web resources and services.